Date,TemperatureHighF,TemperatureAvgF,TemperatureLowF,DewpointHighF,DewpointAvgF,DewpointLowF,HumidityHigh,HumidityAvg,HumidityLow,PressureMaxIn,PressureMinIn,WindSpeedMaxMPH,WindSpeedAvgMPH,GustSpeedMaxMPH,PrecipitationSumIn
2013-1-1,47,44,40,44,37,22,89,76,39,0.00,40.00,5,0,9,0.00
2013-1-2,56,48,44,44,36,29,89,64,37,0.00,40.00,10,3,18,0.00
2013-1-3,48,43,37,39,33,16,86,68,43,0.00,40.00,9,4,20,0.00
2013-1-4,59,40,27,24,15,9,73,38,18,0.00,40.00,12,4,24,0.00
2013-1-5,50,38,24,31,18,13,83,46,24,0.00,40.00,11,2,24,0.00
2013-1-6,60,45,35,36,31,21,87,62,35,0.00,40.00,14,2,22,0.00
2013-1-7,59,39,27,27,22,14,88,57,20,0.00,40.00,7,2,14,0.00
2013-1-8,54,38,24,35,27,21,90,68,32,0.00,40.00,6,1,6,0.00
2013-1-9,59,51,44,48,42,35,88,71,60,0.00,40.00,1,0,4,0.00
2013-1-10,72,55,42,50,43,40,90,69,36,0.00,40.00,11,2,14,0.00
2013-1-11,55,52,51,50,48,48,89,89,80,0.00,40.00,5,1,11,0.00
2013-1-12,78,59,52,59,52,48,89,79,45,0.00,40.00,7,1,14,0.00
2013-1-13,67,57,50,59,52,47,89,84,68,0.00,40.00,6,1,11,0.00
2013-1-14,65,60,55,61,55,-100,89,87,86,0.00,40.00,10,2,14,0.00
2013-1-15,55,51,46,51,47,43,89,88,76,0.00,40.00,8,3,14,0.00
2013-1-16,53,48,45,48,45,42,89,88,85,0.00,40.00,6,1,9,0.00
2013-1-17,52,48,38,49,44,27,89,86,64,0.00,40.00,14,4,29,0.00
2013-1-18,60,41,29,28,16,6,87,42,13,0.00,40.00,17,5,29,0.00
2013-1-19,55,37,23,31,21,11,89,62,19,0.00,40.00,7,1,14,0.00
2013-1-20,70,45,26,33,22,16,89,51,16,0.00,40.00,8,2,18,0.00
2013-1-21,66,42,27,31,18,1,89,50,12,0.00,40.00,17,3,36,0.00
2013-1-22,47,34,26,20,4,-5,77,32,16,0.00,40.00,13,5,22,0.00
2013-1-23,51,36,20,25,13,-2,73,42,22,0.00,40.00,7,2,15,0.00
2013-1-24,48,38,28,29,12,-6,87,40,15,0.00,40.00,16,6,29,0.00
2013-1-25,29,26,21,26,14,-4,88,62,25,0.00,40.00,5,1,10,0.00
2013-1-26,54,35,23,30,23,19,90,68,28,0.00,40.00,6,1,13,0.00
2013-1-27,28,26,25,25,23,22,90,90,88,0.00,40.00,4,1,6,0.00
2013-1-28,54,46,40,39,34,27,87,64,52,0.00,40.00,4,0,11,0.00
2013-1-29,71,51,32,53,42,29,91,74,46,0.00,40.00,10,1,17,0.00
2013-1-30,68,60,46,60,54,40,89,81,62,0.00,40.00,21,6,32,0.00
2013-1-31,49,43,32,40,10,3,80,29,15,0.00,40.00,16,7,37,0.00
2013-2-1,43,36,28,23,7,-3,64,32,18,0.00,40.00,16,5,29,0.00
2013-2-2,44,32,20,33,16,-2,87,59,15,0.00,40.00,10,2,19,0.00
2013-2-3,54,38,27,32,22,11,90,61,19,0.00,40.00,12,3,24,0.00
2013-2-4,53,38,27,25,18,12,75,48,21,0.00,40.00,9,2,16,0.00
2013-2-5,66,44,28,30,27,23,87,57,22,0.00,40.00,9,2,21,0.00
2013-2-6,71,46,29,35,24,13,90,54,13,0.00,40.00,8,2,14,0.00
2013-2-7,50,43,35,40,31,18,89,67,32,0.00,40.00,14,4,21,0.00
2013-2-8,58,47,38,42,33,18,91,61,23,0.00,40.00,14,4,27,0.00
2013-2-9,69,46,30,27,17,2,76,38,9,0.00,40.00,12,4,21,0.00
2013-2-10,58,44,31,43,29,18,89,64,22,0.00,40.00,8,2,14,0.00
2013-2-11,57,51,45,52,47,42,89,87,79,0.00,40.00,7,1,16,0.00
2013-2-12,62,51,42,44,28,12,89,53,15,0.00,40.00,9,2,17,0.00
2013-2-13,51,44,39,41,37,22,89,76,42,0.00,40.00,8,2,18,0.00
2013-2-14,54,41,30,29,25,21,88,57,30,0.00,40.00,10,2,17,0.00
2013-2-15,64,44,26,33,24,17,90,55,17,0.00,40.00,10,3,21,0.00
2013-2-16,43,37,29,29,16,2,84,45,25,0.00,40.00,14,5,26,0.00
2013-2-17,49,32,18,12,2,-7,67,32,11,0.00,40.00,12,3,23,0.00
2013-2-18,55,35,19,23,15,10,87,53,18,0.00,40.00,13,2,22,0.00
2013-2-19,52,37,28,35,23,7,90,65,20,0.00,40.00,11,1,21,0.00
2013-2-20,55,37,21,24,11,-2,88,46,12,0.00,40.00,6,2,14,0.00
2013-2-21,66,46,26,39,14,0,88,34,10,0.00,40.00,6,2,13,0.00
2013-2-22,42,40,38,38,36,31,90,85,73,0.00,40.00,6,2,14,0.00
2013-2-23,46,42,38,41,38,35,90,87,77,0.00,40.00,5,1,10,0.00
2013-2-24,69,51,37,44,29,15,90,52,18,0.00,40.00,10,3,16,0.00
2013-2-25,53,43,34,29,20,15,79,44,25,0.00,40.00,14,5,22,0.00
2013-2-26,42,38,35,39,35,29,89,87,71,0.00,40.00,11,3,22,0.00
2013-2-27,58,45,31,39,29,23,90,58,29,0.00,40.00,11,3,19,0.00
2013-2-28,53,42,31,31,19,15,78,41,25,0.00,40.00,11,4,21,0.00
2013-3-1,52,38,26,26,21,17,88,54,28,0.00,40.00,13,3,19,0.00
2013-3-2,48,40,33,24,20,14,59,44,29,0.00,40.00,17,5,32,0.00
2013-3-3,47,35,28,15,11,8,49,38,26,0.00,40.00,16,8,26,0.00
2013-3-4,55,38,19,24,13,8,81,41,17,0.00,40.00,9,2,16,0.00
2013-3-5,49,42,33,43,34,22,89,75,45,0.00,40.00,10,1,21,0.00
2013-3-6,48,38,28,22,16,12,71,43,24,0.00,40.00,20,7,37,0.00
2013-3-7,66,43,29,24,19,17,73,41,17,0.00,40.00,14,5,27,0.00
2013-3-8,63,44,24,25,11,-3,85,38,9,0.00,40.00,16,5,26,0.00
2013-3-9,66,45,26,29,22,17,85,47,17,0.00,40.00,9,1,13,0.00
2013-3-10,70,50,34,34,29,22,84,52,18,0.00,40.00,10,1,15,0.00
2013-3-11,64,52,42,52,41,33,86,66,48,0.00,40.00,11,2,24,0.00
2013-3-12,67,58,46,32,22,17,46,26,17,0.00,40.00,13,8,22,0.00
2013-3-13,58,45,30,29,15,5,81,34,13,0.00,40.00,14,5,30,0.00
2013-3-14,56,41,29,17,10,6,42,29,16,0.00,40.00,16,4,25,0.00
2013-3-15,74,50,28,32,22,10,72,37,16,0.00,40.00,11,2,24,0.00
2013-3-16,79,62,46,42,37,33,75,45,22,0.00,40.00,14,3,29,0.00
2013-3-17,78,60,43,43,39,35,85,50,24,0.00,40.00,11,3,21,0.00
2013-3-18,53,44,40,40,38,36,90,82,58,0.00,40.00,9,4,16,0.00
2013-3-19,72,52,39,42,23,1,90,47,9,0.00,40.00,13,3,23,0.00
2013-3-20,59,48,39,15,6,1,37,19,11,0.00,40.00,14,4,22,0.00
2013-3-21,49,38,28,24,11,3,68,36,19,0.00,40.00,16,5,24,0.00
2013-3-22,51,37,25,21,15,9,69,42,22,0.00,40.00,11,1,16,0.00
2013-3-23,59,46,40,42,33,20,86,63,40,0.00,40.00,7,1,14,0.00
2013-3-24,68,36,12,65,32,10,92,84,66,0.00,40.00,14,4,52,0.00
2013-3-25,76,47,11,62,23,-11,98,46,18,0.00,40.00,17,6,34,0.00
2013-3-26,72,40,3,39,17,-15,80,44,20,0.00,40.00,17,5,28,0.00
2013-3-27,88,49,27,40,22,6,88,42,14,0.00,40.00,13,4,24,0.00
2013-3-28,85,52,20,40,20,1,78,34,12,0.00,40.00,12,3,24,0.00
2013-3-29,76,47,15,45,25,5,94,50,14,0.00,40.00,11,3,60,0.00
2013-3-30,81,60,34,69,39,28,93,53,21,0.00,40.00,15,3,112,0.00
2013-3-31,100,80,51,90,70,-100,96,77,32,0.00,40.00,9,1,70,0.00
2013-4-1,97,70,38,74,42,17,96,49,11,0.00,40.00,11,3,39,0.00
2013-4-2,92,61,38,42,27,3,94,37,10,0.00,40.00,10,2,17,0.00
2013-4-3,84,61,36,32,18,-3,42,19,12,0.00,40.00,10,4,17,0.00
2013-4-4,67,48,32,55,33,5,90,61,26,0.00,40.00,14,-1,24,0.00
2013-4-5,82,56,18,54,32,7,97,51,11,0.00,40.00,13,4,24,0.00
2013-4-6,95,59,28,48,31,9,94,47,12,0.00,40.00,10,2,20,0.00
2013-4-7,101,63,27,56,40,24,89,51,22,0.00,40.00,11,2,78,0.00
2013-4-8,87,65,47,49,44,41,81,52,24,0.00,40.00,14,2,21,0.00
2013-4-9,93,69,49,49,45,41,80,49,21,0.00,40.00,13,2,24,0.00
2013-4-10,94,70,50,51,46,41,78,49,21,0.00,40.00,11,3,24,0.00
2013-4-11,85,68,54,56,49,45,77,54,26,0.00,40.00,10,3,24,0.00
2013-4-12,92,69,24,80,41,2,83,45,11,0.00,40.00,15,4,34,0.00
2013-4-13,130,81,34,70,43,7,73,34,12,0.00,40.00,9,3,44,0.00
2013-4-14,126,92,60,85,62,36,80,41,17,0.00,40.00,9,2,18,0.00
2013-4-15,102,74,14,89,54,-2,74,52,26,0.00,40.00,8,2,14,0.00
2013-4-16,116,42,-1,80,14,-19,59,36,16,0.00,40.00,7,1,14,0.00
2013-4-17,113,2,113,88,-97,-100,50,38,13,0.00,40.00,9,2,16,0.00
2013-4-18,-200,0,200,-100,-100,-100,50,34,13,0.00,40.00,7,2,14,0.00
2013-4-19,121,56,-19,89,13,-100,54,42,34,0.00,40.00,8,-9,18,0.00
2013-4-20,130,86,65,80,39,-100,52,27,18,0.00,40.00,11,5,24,0.00